Time;durP1;ratioP1;P1;durP2;ratioP2;P2;SDS_P1;SDS_P2;PMS_P1;PMS_P2;Temp;Humidity;BMP_temperature;BMP_pressure;BME280_temperature;BME280_humidity;BME280_pressure;Samples;Min_cycle;Max_cycle;Signal;HPM_P1;HPM_P2
2021/07/16 00:01:28;;;;;;;13.40;2.08;;;;;13.60;100816.00;;;;5037703;28;20068;-74
2021/07/16 00:03:54;;;;;;;18.50;2.60;;;;;13.70;100818.00;;;;5046742;28;20514;-70
2021/07/16 00:06:21;;;;;;;11.40;2.22;;;;;13.70;100804.00;;;;5046710;28;20056;-69
2021/07/16 00:08:48;;;;;;;16.73;2.30;;;;;13.70;100819.00;;;;5046307;28;20028;-72
2021/07/16 00:11:14;;;;;;;10.63;1.95;;;;;13.70;100817.00;;;;5046451;28;20025;-72
2021/07/16 00:13:41;;;;;;;12.63;2.00;;;;;13.70;100806.00;;;;5042405;28;20028;-74
2021/07/16 00:16:08;;;;;;;9.70;1.98;;;;;13.70;100817.00;;;;5036137;28;20987;-71
2021/07/16 00:18:35;;;;;;;19.20;2.08;;;;;13.70;100818.00;;;;5034828;28;20697;-72
2021/07/16 00:21:03;;;;;;;12.55;2.67;;;;;13.70;100829.00;;;;5037003;28;20117;-71
2021/07/16 00:23:31;;;;;;;11.80;1.80;;;;;13.70;100845.00;;;;5037030;28;20140;-72
2021/07/16 00:25:58;;;;;;;17.15;2.55;;;;;13.70;100835.00;;;;5034247;28;20074;-72
2021/07/16 00:28:25;;;;;;;11.63;1.83;;;;;13.70;100843.00;;;;5041539;28;20389;-70
2021/07/16 00:30:52;;;;;;;7.15;1.60;;;;;13.70;100845.00;;;;5046129;28;20079;-70
2021/07/16 00:33:18;;;;;;;12.20;2.47;;;;;13.70;100854.00;;;;5046167;28;20029;-70
2021/07/16 00:35:45;;;;;;;13.35;2.10;;;;;13.70;100859.00;;;;5046247;28;20071;-72
2021/07/16 00:38:12;;;;;;;12.70;2.20;;;;;13.70;100861.00;;;;5046134;28;20821;-70
2021/07/16 00:40:40;;;;;;;12.07;1.63;;;;;13.70;100866.00;;;;5042887;28;20108;-72
2021/07/16 00:43:07;;;;;;;16.55;2.10;;;;;13.70;100876.00;;;;5035298;28;20028;-71
2021/07/16 00:45:34;;;;;;;11.50;1.98;;;;;13.70;100859.00;;;;5044898;28;20832;-69
2021/07/16 00:48:01;;;;;;;12.25;2.05;;;;;13.60;100865.00;;;;5045751;28;20036;-72
2021/07/16 00:50:31;;;;;;;9.75;1.98;;;;;13.70;100864.00;;;;5046092;28;20033;-70
2021/07/16 00:52:59;;;;;;;8.45;1.90;;;;;13.60;100877.00;;;;5041444;28;20035;-72
2021/07/16 00:55:27;;;;;;;12.48;2.55;;;;;13.70;100874.00;;;;5033552;28;20121;-70
2021/07/16 00:57:54;;;;;;;9.65;1.73;;;;;13.60;100870.00;;;;5026045;28;20080;-71
2021/07/16 01:00:21;;;;;;;10.30;1.55;;;;;13.50;100873.00;;;;5025998;28;20037;-72
2021/07/16 01:02:47;;;;;;;8.35;1.65;;;;;13.50;100888.00;;;;5029749;28;20021;-69
2021/07/16 01:05:17;;;;;;;9.18;1.48;;;;;13.50;100888.00;;;;5030131;28;20034;-70
2021/07/16 01:07:44;;;;;;;12.90;2.15;;;;;13.50;100883.00;;;;5029655;28;20033;-70
2021/07/16 01:10:12;;;;;;;9.32;2.17;;;;;13.50;100891.00;;;;5029520;28;20404;-71
2021/07/16 01:12:41;;;;;;;14.82;2.20;;;;;13.50;100895.00;;;;5029845;28;20033;-70
2021/07/16 01:15:11;;;;;;;6.97;1.50;;;;;13.40;100893.00;;;;5028479;28;20120;-71
2021/07/16 01:17:37;;;;;;;7.80;1.77;;;;;13.40;100892.00;;;;5029642;28;20164;-70
2021/07/16 01:20:09;;;;;;;9.48;1.77;;;;;13.30;100902.00;;;;5029869;28;20029;-70
2021/07/16 01:22:38;;;;;;;5.82;1.52;;;;;13.30;100903.00;;;;5029982;28;20062;-73
2021/07/16 01:25:07;;;;;;;6.38;1.73;;;;;13.30;100912.00;;;;5030356;28;20029;-73
2021/07/16 01:27:34;;;;;;;8.18;1.48;;;;;13.30;100898.00;;;;5030002;28;20084;-73
2021/07/16 01:30:04;;;;;;;12.43;1.50;;;;;13.40;100914.00;;;;5029274;28;20029;-71
2021/07/16 01:32:31;;;;;;;7.88;1.80;;;;;13.40;100904.00;;;;5030530;28;20116;-70
2021/07/16 01:34:57;;;;;;;9.35;2.08;;;;;13.40;100904.00;;;;5029659;28;20397;-71
2021/07/16 01:37:24;;;;;;;6.20;1.60;;;;;13.40;100905.00;;;;5029090;28;20029;-73
2021/07/16 01:39:50;;;;;;;9.73;1.75;;;;;13.40;100907.00;;;;5029300;28;20048;-73
2021/07/16 01:42:18;;;;;;;7.00;1.63;;;;;13.40;100903.00;;;;5029045;28;20060;-69
2021/07/16 01:44:45;;;;;;;10.93;1.50;;;;;13.40;100898.00;;;;5029124;28;20037;-69
2021/07/16 01:47:12;;;;;;;5.63;1.45;;;;;13.30;100902.00;;;;5028859;28;20030;-71
2021/07/16 01:49:40;;;;;;;9.80;1.63;;;;;13.30;100909.00;;;;5029427;28;20404;-72
2021/07/16 01:52:06;;;;;;;8.00;1.48;;;;;13.20;100905.00;;;;5030184;28;20033;-70
2021/07/16 01:54:33;;;;;;;8.10;1.83;;;;;13.20;100914.00;;;;5029913;28;20048;-70
2021/07/16 01:57:00;;;;;;;6.65;1.33;;;;;13.20;100904.00;;;;5029066;28;20091;-70
2021/07/16 01:59:30;;;;;;;9.90;1.52;;;;;13.10;100913.00;;;;5029671;28;20040;-68
2021/07/16 02:01:57;;;;;;;10.80;1.77;;;;;13.10;100902.00;;;;5028914;28;20059;-70
2021/07/16 02:04:23;;;;;;;16.35;1.45;;;;;13.00;100923.00;;;;5029556;28;20465;-70
2021/07/16 02:06:50;;;;;;;8.13;2.00;;;;;13.00;100920.00;;;;5028996;28;20033;-69
2021/07/16 02:09:16;;;;;;;9.65;1.90;;;;;12.90;100909.00;;;;5029283;28;20037;-72
2021/07/16 02:11:43;;;;;;;14.95;2.65;;;;;13.00;100922.00;;;;5028703;28;20025;-71
2021/07/16 02:14:10;;;;;;;11.45;1.48;;;;;13.00;100930.00;;;;5027118;28;20139;-71
2021/07/16 02:16:36;;;;;;;13.25;1.85;;;;;12.90;100933.00;;;;5029267;28;20038;-70
2021/07/16 02:19:04;;;;;;;16.38;1.92;;;;;13.00;100928.00;;;;5028886;28;20025;-70
2021/07/16 02:21:31;;;;;;;8.05;1.80;;;;;12.90;100928.00;;;;5028325;28;20099;-72
2021/07/16 02:23:57;;;;;;;10.25;1.70;;;;;12.80;100936.00;;;;5028928;28;20029;-71
2021/07/16 02:26:24;;;;;;;9.13;1.65;;;;;12.80;100925.00;;;;5028381;28;20042;-72
2021/07/16 02:28:50;;;;;;;10.20;1.90;;;;;12.80;100931.00;;;;5028676;28;20075;-70
2021/07/16 02:31:17;;;;;;;10.70;1.65;;;;;12.80;100942.00;;;;5028490;28;20030;-70
2021/07/16 02:33:43;;;;;;;10.60;1.50;;;;;12.80;100944.00;;;;5028067;28;20038;-71
2021/07/16 02:36:10;;;;;;;9.43;1.67;;;;;12.80;100933.00;;;;5028367;28;20037;-73
2021/07/16 02:38:37;;;;;;;15.65;1.92;;;;;12.70;100946.00;;;;5028071;28;20100;-69
2021/07/16 02:41:04;;;;;;;20.20;2.20;;;;;12.70;100941.00;;;;5028167;28;20045;-71
2021/07/16 02:43:30;;;;;;;6.68;1.60;;;;;12.70;100950.00;;;;5028793;28;20030;-69
2021/07/16 02:45:57;;;;;;;10.38;2.00;;;;;12.80;100948.00;;;;5028569;28;20021;-71
2021/07/16 02:48:25;;;;;;;9.95;1.85;;;;;12.80;100943.00;;;;5028108;28;20582;-70
2021/07/16 02:50:51;;;;;;;8.80;1.38;;;;;12.80;100955.00;;;;5028054;28;20167;-73
2021/07/16 02:53:21;;;;;;;11.60;1.88;;;;;12.80;100944.00;;;;5027800;28;20029;-73
2021/07/16 02:55:49;;;;;;;9.80;1.42;;;;;12.80;100942.00;;;;5028168;28;20033;-70
2021/07/16 02:58:16;;;;;;;11.00;1.60;;;;;12.80;100950.00;;;;5027858;28;20535;-71
2021/07/16 03:00:43;;;;;;;6.53;1.58;;;;;12.90;100963.00;;;;5027662;28;20136;-69
2021/07/16 03:03:09;;;;;;;7.93;1.50;;;;;12.80;100949.00;;;;5028060;28;20406;-72
2021/07/16 03:05:37;;;;;;;11.25;1.98;;;;;12.80;100944.00;;;;5027619;28;20068;-72
2021/07/16 03:08:06;;;;;;;7.43;1.58;;;;;12.90;100957.00;;;;5028733;28;20504;-74
2021/07/16 03:10:41;;;;;;;12.55;2.05;;;;;12.90;100950.00;;;;5027834;28;20025;-73
2021/07/16 03:13:11;;;;;;;12.32;1.58;;;;;12.90;100956.00;;;;5027589;28;20025;-71
2021/07/16 03:15:38;;;;;;;12.63;1.80;;;;;12.90;100963.00;;;;5027598;28;20386;-72
2021/07/16 03:18:06;;;;;;;9.32;1.90;;;;;12.90;100947.00;;;;5028050;28;20037;-71
2021/07/16 03:20:42;;;;;;;11.93;1.83;;;;;12.90;100953.00;;;;5027788;28;20056;-70
2021/07/16 03:23:11;;;;;;;8.07;1.70;;;;;12.90;100943.00;;;;5027398;28;20056;-71
2021/07/16 03:25:38;;;;;;;9.95;2.13;;;;;12.90;100962.00;;;;5026101;28;20033;-69
2021/07/16 03:28:09;;;;;;;9.00;1.70;;;;;12.90;100951.00;;;;5027364;28;20049;-72
2021/07/16 03:30:36;;;;;;;12.68;1.95;;;;;13.00;100952.00;;;;5027050;28;20041;-71
2021/07/16 03:33:03;;;;;;;12.20;1.67;;;;;12.90;100955.00;;;;5027851;28;20034;-72
2021/07/16 03:35:29;;;;;;;11.13;1.90;;;;;12.90;100957.00;;;;5027567;28;20033;-69
2021/07/16 03:37:57;;;;;;;11.68;1.98;;;;;12.90;100957.00;;;;5027498;28;20040;-73
2021/07/16 03:40:30;;;;;;;5.70;1.50;;;;;12.90;100962.00;;;;5027050;28;20036;-74
2021/07/16 03:42:58;;;;;;;6.30;1.88;;;;;12.90;100956.00;;;;5027116;28;20501;-71
2021/07/16 03:45:25;;;;;;;12.98;2.33;;;;;12.90;100946.00;;;;5026763;28;20073;-68
2021/07/16 03:47:52;;;;;;;11.80;1.63;;;;;12.90;100952.00;;;;5026939;28;20033;-73
2021/07/16 03:50:21;;;;;;;8.57;2.03;;;;;13.00;100948.00;;;;5026816;28;20065;-72
2021/07/16 03:52:49;;;;;;;10.60;2.33;;;;;13.00;100958.00;;;;5027381;28;20036;-72
2021/07/16 03:55:17;;;;;;;6.90;1.38;;;;;13.00;100956.00;;;;5027838;28;20079;-69
2021/07/16 03:57:53;;;;;;;15.55;2.00;;;;;12.90;100951.00;;;;5165866;27;20554;-69
2021/07/16 04:00:28;;;;;;;15.48;2.75;;;;;12.90;100966.00;;;;5145996;27;20066;-69
2021/07/16 04:02:59;;;;;;;12.57;2.10;;;;;12.90;100957.00;;;;5145182;27;20035;-68
2021/07/16 04:05:26;;;;;;;13.85;2.00;;;;;12.90;100954.00;;;;5145388;27;20023;-71
2021/07/16 04:08:01;;;;;;;13.40;1.80;;;;;12.90;100960.00;;;;5145005;27;20066;-70
2021/07/16 04:10:28;;;;;;;11.05;1.83;;;;;12.90;100959.00;;;;5144881;27;20415;-68
2021/07/16 04:13:00;;;;;;;10.35;1.55;;;;;12.90;100955.00;;;;5145411;27;20030;-69
2021/07/16 04:15:28;;;;;;;9.70;1.63;;;;;12.90;100954.00;;;;5144920;27;20030;-71
2021/07/16 04:17:56;;;;;;;8.85;1.75;;;;;13.00;100967.00;;;;5144720;27;20489;-69
2021/07/16 04:20:24;;;;;;;11.05;2.10;;;;;12.90;100963.00;;;;5145063;27;20089;-69
2021/07/16 04:22:51;;;;;;;16.60;2.38;;;;;12.90;100968.00;;;;5127695;27;20032;-70
2021/07/16 04:25:18;;;;;;;15.30;2.72;;;;;12.90;100959.00;;;;5124683;28;20015;-70
2021/07/16 04:27:47;;;;;;;18.85;2.35;;;;;12.90;100959.00;;;;5124011;28;20032;-71
2021/07/16 04:30:15;;;;;;;15.45;2.10;;;;;12.90;100957.00;;;;5124046;28;20027;-69
2021/07/16 04:32:42;;;;;;;14.18;1.95;;;;;12.90;100954.00;;;;5124061;28;20067;-70
2021/07/16 04:35:10;;;;;;;13.10;2.30;;;;;13.00;100960.00;;;;5123879;28;20023;-71
2021/07/16 04:37:38;;;;;;;11.20;2.13;;;;;12.90;100957.00;;;;5123821;28;20050;-68
2021/07/16 04:40:07;;;;;;;14.02;2.20;;;;;12.90;100969.00;;;;5123975;28;20386;-70
2021/07/16 04:42:34;;;;;;;10.00;2.38;;;;;12.90;100944.00;;;;5124004;28;20514;-71
2021/07/16 04:45:00;;;;;;;17.35;2.83;;;;;12.80;100957.00;;;;5123640;28;20111;-68
2021/07/16 04:47:27;;;;;;;18.40;2.72;;;;;12.90;100951.00;;;;5123638;28;20110;-70
2021/07/16 04:49:54;;;;;;;16.77;2.47;;;;;12.80;100951.00;;;;5123736;28;20031;-68
2021/07/16 04:52:21;;;;;;;18.73;2.50;;;;;12.80;100961.00;;;;5124354;28;20027;-70
2021/07/16 04:54:48;;;;;;;14.20;2.30;;;;;12.80;100944.00;;;;5123058;28;20083;-70
2021/07/16 04:57:14;;;;;;;12.00;2.50;;;;;12.70;100946.00;;;;5123084;28;20051;-72
2021/07/16 04:59:41;;;;;;;12.95;2.30;;;;;12.80;100950.00;;;;5123819;28;20124;-71
2021/07/16 05:02:07;;;;;;;16.70;2.35;;;;;12.80;100945.00;;;;5123674;28;20027;-67
2021/07/16 05:04:34;;;;;;;22.02;2.97;;;;;12.70;100948.00;;;;5122762;28;20039;-71
2021/07/16 05:07:01;;;;;;;11.88;2.15;;;;;12.70;100939.00;;;;5122822;28;20051;-69
2021/07/16 05:09:27;;;;;;;15.27;2.13;;;;;12.70;100948.00;;;;5109030;28;20509;-69
2021/07/16 05:11:54;;;;;;;14.48;2.20;;;;;12.70;100929.00;;;;5109421;28;20035;-70
2021/07/16 05:14:21;;;;;;;22.20;2.67;;;;;12.70;100936.00;;;;5110737;28;20036;-71
2021/07/16 05:16:47;;;;;;;13.85;2.13;;;;;12.60;100937.00;;;;5109969;28;20050;-73
2021/07/16 05:19:14;;;;;;;11.80;2.20;;;;;12.60;100932.00;;;;5109251;28;20043;-71
2021/07/16 05:21:40;;;;;;;14.32;2.63;;;;;12.60;100951.00;;;;5109326;28;20073;-69
2021/07/16 05:24:07;;;;;;;10.80;2.00;;;;;12.50;100926.00;;;;5109669;28;20047;-70
2021/07/16 05:26:33;;;;;;;13.80;1.80;;;;;12.50;100928.00;;;;5108812;28;20039;-68
2021/07/16 05:29:00;;;;;;;14.65;2.45;;;;;12.50;100935.00;;;;5109172;28;20027;-70
2021/07/16 05:31:27;;;;;;;16.92;2.60;;;;;12.40;100941.00;;;;5108965;28;20495;-71
2021/07/16 05:33:53;;;;;;;12.02;1.70;;;;;12.40;100936.00;;;;5108791;28;20040;-70
2021/07/16 05:36:20;;;;;;;13.93;1.90;;;;;12.40;100936.00;;;;5109025;28;20033;-69
2021/07/16 05:38:46;;;;;;;14.98;2.55;;;;;12.40;100939.00;;;;5110113;28;20022;-70
2021/07/16 05:41:13;;;;;;;11.88;2.33;;;;;12.30;100935.00;;;;5108863;28;20024;-68
2021/07/16 05:43:40;;;;;;;12.05;1.88;;;;;12.30;100946.00;;;;5109728;28;20039;-70
2021/07/16 05:46:06;;;;;;;22.05;2.25;;;;;12.30;100945.00;;;;5109171;28;20051;-68
2021/07/16 05:48:33;;;;;;;13.93;2.00;;;;;12.30;100939.00;;;;5108902;28;20106;-70
2021/07/16 05:51:01;;;;;;;12.50;2.70;;;;;12.30;100938.00;;;;5109208;28;20031;-70
2021/07/16 05:53:29;;;;;;;14.98;2.15;;;;;12.30;100943.00;;;;5108765;28;20027;-70
2021/07/16 05:55:55;;;;;;;14.25;2.20;;;;;12.30;100936.00;;;;5108988;28;20096;-72
2021/07/16 05:58:22;;;;;;;15.35;2.70;;;;;12.20;100927.00;;;;5108620;28;20023;-72
2021/07/16 06:00:50;;;;;;;10.43;1.90;;;;;12.20;100938.00;;;;5108387;28;20516;-69
2021/07/16 06:03:16;;;;;;;13.32;1.90;;;;;12.20;100928.00;;;;5109022;28;20044;-73
2021/07/16 06:05:43;;;;;;;15.25;2.35;;;;;12.20;100925.00;;;;5108946;28;20513;-69
2021/07/16 06:08:09;;;;;;;14.55;2.13;;;;;12.20;100928.00;;;;5109277;28;20450;-69
2021/07/16 06:10:36;;;;;;;20.40;3.25;;;;;12.20;100928.00;;;;5108567;28;20046;-69
2021/07/16 06:13:03;;;;;;;13.98;1.83;;;;;12.20;100931.00;;;;5108319;28;20043;-67
2021/07/16 06:15:29;;;;;;;13.90;2.65;;;;;12.10;100934.00;;;;5108880;28;20038;-70
2021/07/16 06:17:56;;;;;;;13.93;2.00;;;;;12.10;100925.00;;;;5108774;28;20016;-70
2021/07/16 06:20:23;;;;;;;14.60;2.13;;;;;12.10;100936.00;;;;5107654;28;20035;-71
2021/07/16 06:22:49;;;;;;;11.70;2.00;;;;;12.20;100935.00;;;;5107908;28;20039;-72
2021/07/16 06:25:19;;;;;;;17.13;2.45;;;;;12.20;100931.00;;;;5108503;28;20454;-71
2021/07/16 06:27:47;;;;;;;11.15;1.92;;;;;12.20;100923.00;;;;5107830;28;20506;-68
2021/07/16 06:30:15;;;;;;;13.52;2.15;;;;;12.20;100945.00;;;;5107764;28;20111;-72
2021/07/16 06:32:42;;;;;;;12.77;2.38;;;;;12.20;100946.00;;;;5108225;28;20031;-70
2021/07/16 06:35:09;;;;;;;11.35;1.70;;;;;12.10;100923.00;;;;5107988;28;20044;-72
2021/07/16 06:37:37;;;;;;;16.25;2.17;;;;;12.10;100950.00;;;;5108312;28;20088;-68
2021/07/16 06:40:05;;;;;;;21.17;2.30;;;;;12.10;100926.00;;;;5107845;28;20489;-71
2021/07/16 06:42:32;;;;;;;10.23;1.98;;;;;12.20;100927.00;;;;5108201;28;20581;-69
2021/07/16 06:44:59;;;;;;;14.63;1.90;;;;;12.10;100935.00;;;;5108011;28;20474;-68
2021/07/16 06:47:25;;;;;;;11.88;1.80;;;;;12.10;100931.00;;;;5107580;28;20063;-70
2021/07/16 06:49:52;;;;;;;19.23;2.10;;;;;12.10;100919.00;;;;5107890;28;20068;-71
2021/07/16 06:52:18;;;;;;;12.63;1.95;;;;;12.10;100926.00;;;;5107857;28;20112;-69
2021/07/16 06:54:45;;;;;;;13.55;1.85;;;;;12.00;100918.00;;;;5107382;28;20156;-71
2021/07/16 06:57:12;;;;;;;8.68;1.73;;;;;12.00;100931.00;;;;5107387;28;20103;-72
2021/07/16 06:59:38;;;;;;;13.32;1.70;;;;;12.00;100928.00;;;;5107701;28;20031;-71
2021/07/16 07:02:05;;;;;;;14.00;2.03;;;;;12.00;100930.00;;;;5107804;28;20478;-69
2021/07/16 07:04:32;;;;;;;22.77;2.80;;;;;12.00;100947.00;;;;5107609;28;20038;-71
2021/07/16 07:06:59;;;;;;;15.90;2.20;;;;;12.00;100955.00;;;;5108217;28;20110;-70
2021/07/16 07:09:26;;;;;;;13.20;2.00;;;;;12.00;100943.00;;;;5107614;28;20024;-71
2021/07/16 07:11:52;;;;;;;15.07;2.28;;;;;12.00;100939.00;;;;5107438;28;20023;-69
2021/07/16 07:14:19;;;;;;;15.70;2.00;;;;;12.00;100943.00;;;;5107343;28;20089;-70
2021/07/16 07:16:45;;;;;;;18.75;1.90;;;;;12.00;100944.00;;;;5107380;28;20114;-72
2021/07/16 07:19:12;;;;;;;10.75;1.88;;;;;12.00;100959.00;;;;5108016;28;20488;-69
2021/07/16 07:21:39;;;;;;;22.85;2.00;;;;;12.00;100931.00;;;;5107284;28;20051;-72
2021/07/16 07:24:05;;;;;;;18.85;2.38;;;;;12.00;100948.00;;;;5106878;28;20031;-68
2021/07/16 07:26:33;;;;;;;13.68;1.38;;;;;12.00;100937.00;;;;5107256;28;20063;-71
2021/07/16 07:29:00;;;;;;;16.42;2.70;;;;;11.90;100930.00;;;;5107106;28;20108;-69
2021/07/16 07:31:26;;;;;;;12.55;1.95;;;;;11.90;100933.00;;;;5107029;28;20461;-71
2021/07/16 07:33:53;;;;;;;20.08;2.30;;;;;11.90;100915.00;;;;5107508;28;20028;-72
2021/07/16 07:36:20;;;;;;;13.50;1.48;;;;;11.90;100931.00;;;;5106947;28;20509;-73
2021/07/16 07:38:46;;;;;;;12.57;1.90;;;;;11.80;100916.00;;;;5106976;28;20073;-70
2021/07/16 07:41:13;;;;;;;15.95;2.08;;;;;11.80;100923.00;;;;5107082;28;20406;-70
2021/07/16 07:43:39;;;;;;;15.02;1.90;;;;;11.70;100916.00;;;;5107518;28;20034;-71
2021/07/16 07:46:06;;;;;;;15.43;1.88;;;;;11.70;100922.00;;;;5106848;28;20397;-70
2021/07/16 07:48:33;;;;;;;13.98;2.03;;;;;11.60;100927.00;;;;5106447;28;20032;-71
2021/07/16 07:50:59;;;;;;;22.67;1.98;;;;;11.70;100922.00;;;;5106744;28;20024;-72
2021/07/16 07:53:26;;;;;;;13.75;1.88;;;;;11.60;100916.00;;;;5106378;28;20478;-70
2021/07/16 07:55:53;;;;;;;15.60;1.98;;;;;11.50;100911.00;;;;5106813;28;20056;-71
2021/07/16 07:58:19;;;;;;;12.77;1.90;;;;;11.40;100920.00;;;;5107493;28;20706;-69
2021/07/16 08:00:46;;;;;;;9.95;1.63;;;;;11.30;100907.00;;;;5107277;28;20074;-69
2021/07/16 08:03:12;;;;;;;14.63;1.80;;;;;11.20;100916.00;;;;5106507;28;20577;-72
2021/07/16 08:05:39;;;;;;;16.25;2.22;;;;;11.20;100917.00;;;;5106320;28;20028;-72
2021/07/16 08:08:06;;;;;;;12.60;2.05;;;;;11.10;100920.00;;;;5088372;28;20478;-69
2021/07/16 08:10:32;;;;;;;19.10;2.50;;;;;11.10;100927.00;;;;5106291;28;20023;-70
2021/07/16 08:12:59;;;;;;;16.70;2.53;;;;;10.90;100913.00;;;;5106652;28;20067;-72
2021/07/16 08:15:26;;;;;;;20.50;2.85;;;;;10.90;100938.00;;;;5106541;28;20315;-73
2021/07/16 08:17:53;;;;;;;21.10;2.40;;;;;10.90;100920.00;;;;5106484;28;20062;-68
2021/07/16 08:20:19;;;;;;;9.25;2.38;;;;;10.90;100937.00;;;;5106347;28;20307;-70
2021/07/16 08:22:46;;;;;;;21.42;2.13;;;;;10.80;100929.00;;;;5106055;28;20027;-68
2021/07/16 08:25:13;;;;;;;15.65;2.10;;;;;10.80;100922.00;;;;5107123;28;20536;-70
2021/07/16 08:27:41;;;;;;;13.48;1.88;;;;;10.70;100929.00;;;;5106619;28;20040;-71
2021/07/16 08:30:09;;;;;;;12.18;1.83;;;;;10.70;100933.00;;;;5106455;28;20042;-69
2021/07/16 08:32:36;;;;;;;13.88;1.65;;;;;10.60;100939.00;;;;5106379;28;20039;-72
2021/07/16 08:35:05;;;;;;;13.15;2.10;;;;;10.60;100926.00;;;;5106243;28;20035;-72
2021/07/16 08:37:32;;;;;;;8.88;1.85;;;;;10.60;100920.00;;;;5106129;28;20110;-70
2021/07/16 08:39:59;;;;;;;20.27;2.17;;;;;10.60;100927.00;;;;5106161;28;20462;-69
2021/07/16 08:42:26;;;;;;;13.95;1.98;;;;;10.50;100925.00;;;;5106581;28;20833;-69
2021/07/16 08:44:53;;;;;;;14.27;2.10;;;;;10.50;100936.00;;;;5110031;28;20032;-68
2021/07/16 08:47:20;;;;;;;17.70;3.03;;;;;10.60;100931.00;;;;5109912;28;20100;-70
2021/07/16 08:49:47;;;;;;;12.57;2.75;;;;;10.60;100936.00;;;;5110027;28;20830;-70
2021/07/16 08:52:14;;;;;;;19.33;2.40;;;;;10.60;100937.00;;;;5092128;28;20046;-72
2021/07/16 08:54:46;;;;;;;21.02;2.50;;;;;10.60;100915.00;;;;5110077;28;20115;-70
2021/07/16 08:57:15;;;;;;;8.57;1.88;;;;;10.50;100919.00;;;;5109437;28;20059;-70
2021/07/16 08:59:42;;;;;;;25.70;2.55;;;;;10.30;100928.00;;;;5109716;28;20080;-72
2021/07/16 09:02:08;;;;;;;19.88;2.55;;;;;10.40;100945.00;;;;5109458;28;20063;-70
2021/07/16 09:04:40;;;;;;;13.02;2.50;;;;;10.40;100952.00;;;;5109726;28;20473;-71
2021/07/16 09:07:06;;;;;;;;;;;;;10.40;100945.00;;;;5110434;28;20063;-70
2021/07/16 09:09:37;;;;;;;17.20;2.53;;;;;10.50;100957.00;;;;5109747;28;19976;-73
2021/07/16 09:12:13;;;;;;;11.15;2.22;;;;;10.40;100968.00;;;;5109386;28;20038;-70
2021/07/16 09:14:41;;;;;;;14.63;2.50;;;;;10.40;100953.00;;;;5109329;28;20074;-72
2021/07/16 09:17:14;;;;;;;20.38;2.58;;;;;10.40;100960.00;;;;5110313;28;20035;-72
2021/07/16 09:19:45;;;;;;;20.40;3.03;;;;;10.40;100971.00;;;;5109602;28;20477;-70
2021/07/16 09:22:21;;;;;;;25.42;2.92;;;;;10.40;100970.00;;;;5109220;28;20498;-72
2021/07/16 09:24:58;;;;;;;21.80;2.83;;;;;10.40;100962.00;;;;5109591;28;20458;-73
2021/07/16 09:27:42;;;;;;;15.32;2.78;;;;;10.40;100981.00;;;;5109809;28;20028;-71
2021/07/16 09:30:23;;;;;;;12.20;2.50;;;;;10.50;100984.00;;;;5109818;28;20507;-69
2021/07/16 09:33:00;;;;;;;12.77;2.73;;;;;10.50;100980.00;;;;5109266;28;20024;-70
2021/07/16 09:35:38;;;;;;;10.32;1.90;;;;;10.50;100975.00;;;;5109175;28;20052;-70
2021/07/16 09:38:12;;;;;;;6.53;1.92;;;;;10.40;100974.00;;;;5109359;28;20028;-69
2021/07/16 09:40:46;;;;;;;9.45;2.22;;;;;10.40;100975.00;;;;5109186;28;20478;-69
2021/07/16 09:43:16;;;;;;;10.00;2.10;;;;;10.30;100967.00;;;;5109263;28;20073;-72
2021/07/16 09:46:01;;;;;;;16.77;2.33;;;;;10.20;100968.00;;;;5109159;28;20051;-70
2021/07/16 09:48:33;;;;;;;12.63;2.88;;;;;10.10;100958.00;;;;5109196;28;20023;-70
2021/07/16 09:51:15;;;;;;;;;;;;;10.00;100968.00;;;;5109499;28;20432;-71
2021/07/16 09:53:49;;;;;;;32.85;2.35;;;;;9.80;100967.00;;;;5108617;28;19916;-70
2021/07/16 09:56:18;;;;;;;44.30;3.00;;;;;9.80;100972.00;;;;5107228;28;20357;-72
2021/07/16 09:58:46;;;;;;;15.45;2.60;;;;;9.70;100960.00;;;;5107160;28;20747;-69
2021/07/16 10:01:13;;;;;;;13.98;2.17;;;;;9.60;100965.00;;;;5107258;28;20027;-71
2021/07/16 10:03:41;;;;;;;15.38;2.42;;;;;9.50;100950.00;;;;5108165;28;20035;-73
2021/07/16 10:06:12;;;;;;;187.80;6.35;;;;;9.50;100961.00;;;;5108529;28;20024;-70
2021/07/16 10:08:39;;;;;;;;;;;;;9.50;100961.00;;;;5109202;28;20023;-69
2021/07/16 10:11:06;;;;;;;27.63;2.60;;;;;9.50;100953.00;;;;5108872;28;19923;-70
2021/07/16 10:13:36;;;;;;;96.22;4.03;;;;;9.50;100959.00;;;;5107087;28;20059;-70
2021/07/16 10:16:04;;;;;;;131.70;4.32;;;;;9.40;100975.00;;;;5107795;28;20513;-69
2021/07/16 10:18:31;;;;;;;109.80;3.63;;;;;9.40;100962.00;;;;5108061;28;20530;-69
2021/07/16 10:20:58;;;;;;;172.75;4.75;;;;;9.30;100965.00;;;;5107255;28;20562;-71
2021/07/16 10:23:26;;;;;;;205.77;5.47;;;;;9.30;100960.00;;;;5106953;28;20107;-70
2021/07/16 10:25:53;;;;;;;190.23;5.28;;;;;9.30;100971.00;;;;5108098;28;20035;-71
2021/07/16 10:28:40;;;;;;;117.40;3.30;;;;;9.20;100988.00;;;;5108186;28;20027;-69
2021/07/16 10:31:30;;;;;;;175.90;4.00;;;;;9.20;100992.00;;;;5108195;28;20036;-71
2021/07/16 10:34:05;;;;;;;126.45;3.17;;;;;9.20;100984.00;;;;5077993;28;20044;-73
2021/07/16 10:36:46;;;;;;;41.78;1.52;;;;;9.20;100968.00;;;;5108092;28;20160;-73
2021/07/16 10:39:34;;;;;;;12.25;1.23;;;;;9.20;100982.00;;;;5106937;28;20047;-71
2021/07/16 10:42:00;;;;;;;6.30;1.30;;;;;9.10;100981.00;;;;5107324;28;20038;-70
2021/07/16 10:44:46;;;;;;;3.53;1.20;;;;;9.20;100975.00;;;;5108293;28;20023;-73
2021/07/16 10:47:34;;;;;;;3.90;1.40;;;;;9.30;100978.00;;;;5107635;28;20387;-71
2021/07/16 10:50:01;;;;;;;5.40;1.42;;;;;9.40;100952.00;;;;5107699;28;20417;-71
2021/07/16 10:52:54;;;;;;;7.80;2.17;;;;;10.50;100919.00;;;;5107646;28;20125;-74
2021/07/16 10:55:44;;;;;;;7.10;1.45;;;;;12.00;100881.00;;;;5103646;28;20027;-72
2021/07/16 10:58:24;;;;;;;6.85;1.63;;;;;12.70;100901.00;;;;5094648;28;20403;-71
2021/07/16 11:01:01;;;;;;;8.77;1.65;;;;;13.00;100869.00;;;;5107890;28;20110;-73
2021/07/16 11:03:51;;;;;;;3.83;1.15;;;;;13.20;100888.00;;;;5108414;28;20114;-72
2021/07/16 11:06:20;;;;;;;5.97;1.08;;;;;13.30;100911.00;;;;5107050;28;20073;-72
2021/07/16 11:08:47;;;;;;;8.70;1.83;;;;;12.70;100927.00;;;;5107373;28;20039;-72
2021/07/16 11:11:18;;;;;;;8.82;1.50;;;;;14.10;100885.00;;;;5107192;28;20115;-71
2021/07/16 11:13:46;;;;;;;9.05;1.90;;;;;14.00;100904.00;;;;5107449;28;20031;-73
2021/07/16 11:16:16;;;;;;;4.45;1.52;;;;;13.80;100942.00;;;;5106621;28;20044;-72
2021/07/16 11:19:01;;;;;;;13.00;2.40;;;;;14.00;100931.00;;;;5106877;28;20463;-72
2021/07/16 11:21:40;;;;;;;7.70;2.22;;;;;14.50;100892.00;;;;5106917;28;20023;-72
2021/07/16 11:24:07;;;;;;;5.43;1.80;;;;;16.00;100857.00;;;;5107245;28;20107;-74
2021/07/16 11:26:47;;;;;;;6.45;1.95;;;;;14.10;100988.00;;;;5107431;28;20076;-72
2021/07/16 11:29:13;;;;;;;5.18;2.63;;;;;14.00;100891.00;;;;5106912;28;20473;-73
2021/07/16 11:31:41;;;;;;;9.35;2.90;;;;;16.90;100799.00;;;;5107246;28;20631;-72
2021/07/16 11:34:12;;;;;;;4.38;2.00;;;;;18.20;100833.00;;;;5106859;28;20375;-73
2021/07/16 11:36:49;;;;;;;10.27;3.17;;;;;19.20;100808.00;;;;5106853;28;20039;-70
2021/07/16 11:39:38;;;;;;;4.80;1.85;;;;;20.10;100784.00;;;;5107156;28;20072;-69
2021/07/16 11:42:07;;;;;;;8.95;2.75;;;;;19.80;100772.00;;;;5107064;28;20039;-72
2021/07/16 11:44:38;;;;;;;11.27;3.30;;;;;20.20;100779.00;;;;5106713;28;20039;-71
2021/07/16 11:47:15;;;;;;;10.63;2.40;;;;;20.80;100800.00;;;;5106682;28;20028;-71
2021/07/16 11:49:47;;;;;;;5.07;2.20;;;;;20.90;100782.00;;;;5107080;28;20390;-70
2021/07/16 11:52:17;;;;;;;;;;;;;22.70;100784.00;;;;5107137;28;20502;-73
2021/07/16 11:54:44;;;;;;;3.00;1.10;;;;;21.70;100797.00;;;;5107102;28;19915;-71
2021/07/16 11:57:13;;;;;;;3.03;1.23;;;;;21.10;100812.00;;;;5106744;28;20453;-72
2021/07/16 11:59:47;;;;;;;5.38;1.27;;;;;21.80;100844.00;;;;5106617;28;20024;-73
2021/07/16 12:02:16;;;;;;;6.68;1.55;;;;;21.90;100855.00;;;;5106717;28;20391;-71
2021/07/16 12:04:45;;;;;;;6.78;1.27;;;;;22.30;100854.00;;;;5106716;28;20119;-74
2021/07/16 12:07:12;;;;;;;10.23;1.65;;;;;22.20;100867.00;;;;5106182;28;20024;-71
2021/07/16 12:09:45;;;;;;;4.90;1.40;;;;;22.10;100853.00;;;;5105994;28;20759;-71
2021/07/16 12:12:14;;;;;;;4.97;1.63;;;;;21.90;100865.00;;;;5105943;28;20531;-71